Time;durP1;ratioP1;P1;durP2;ratioP2;P2;SDS_P1;SDS_P2;PMS_P1;PMS_P2;Temp;Humidity;BMP_temperature;BMP_pressure;BME280_temperature;BME280_humidity;BME280_pressure;Samples;Min_cycle;Max_cycle;Signal;HPM_P1;HPM_P2
2023/10/14 00:01:31;;;;;;;8.95;2.35;;;;;;;26.24;45.73;99824.84;4959359;28;20053;-61
2023/10/14 00:03:57;;;;;;;11.35;2.80;;;;;;;26.19;46.47;99822.03;4940782;28;20051;-61
2023/10/14 00:06:23;;;;;;;6.03;2.95;;;;;;;26.16;46.45;99819.81;4956859;28;20065;-60
2023/10/14 00:08:57;;;;;;;5.38;2.78;;;;;;;26.13;46.41;99831.28;4957089;28;20038;-61
2023/10/14 00:11:23;;;;;;;6.20;2.95;;;;;;;26.08;46.02;99828.44;4956732;28;20033;-61
2023/10/14 00:13:49;;;;;;;9.05;3.25;;;;;;;26.05;45.69;99829.78;4940726;28;20461;-61
2023/10/14 00:16:35;;;;;;;9.35;3.28;;;;;;;26.00;45.85;99827.81;4956910;28;20026;-61
2023/10/14 00:19:09;;;;;;;6.43;3.78;;;;;;;25.99;46.32;99836.31;4956626;28;20105;-61
2023/10/14 00:21:35;;;;;;;10.40;3.00;;;;;;;25.96;46.47;99837.63;4941799;28;20450;-61
2023/10/14 00:24:03;;;;;;;6.68;2.97;;;;;;;25.95;45.95;99835.97;4974175;28;20379;-61
2023/10/14 00:26:30;;;;;;;7.10;2.42;;;;;;;25.95;46.43;99852.44;4941322;28;20444;-61
2023/10/14 00:31:41;;;;;;;7.15;2.17;;;;;;;25.93;46.38;99860.13;4959565;28;20069;-60
2023/10/14 00:34:07;;;;;;;9.15;1.92;;;;;;;25.90;45.88;99865.28;4956581;28;20031;-60
2023/10/14 00:36:34;;;;;;;8.60;1.42;;;;;;;25.85;45.77;99865.19;4940196;28;20034;-61
2023/10/14 00:39:12;;;;;;;4.35;1.70;;;;;;;25.84;46.23;99861.63;4956718;28;20390;-60
2023/10/14 00:41:42;;;;;;;6.68;1.42;;;;;;;25.79;45.93;99886.25;4943596;28;20042;-61
2023/10/14 00:44:09;;;;;;;3.50;1.58;;;;;;;25.69;46.27;99902.53;4959580;28;20066;-61
2023/10/14 00:46:35;;;;;;;4.07;1.20;;;;;;;25.52;47.05;99918.16;4959726;28;20057;-61
2023/10/14 00:49:04;;;;;;;5.93;1.38;;;;;;;25.32;47.39;99915.06;4960012;28;20438;-63
2023/10/14 00:51:31;;;;;;;5.47;1.40;;;;;;;25.07;48.07;99917.34;4926780;28;20046;-62
2023/10/14 00:54:02;;;;;;;4.97;1.30;;;;;;;24.81;48.54;99916.84;4953162;28;20031;-63
2023/10/14 00:56:28;;;;;;;3.30;1.52;;;;;;;24.58;48.87;99951.66;4960504;28;20039;-63
2023/10/14 00:58:59;;;;;;;7.45;2.30;;;;;;;24.40;49.50;99963.59;4959771;28;20098;-64
2023/10/14 01:01:50;;;;;;;9.43;2.33;;;;;;;24.17;49.47;99963.63;4960075;28;20042;-63
2023/10/14 01:04:18;;;;;;;6.13;1.48;;;;;;;24.02;49.62;99965.97;4946668;28;20038;-63
2023/10/14 01:09:41;;;;;;;5.32;0.75;;;;;;;23.64;50.64;99964.53;4952652;28;20070;-63
2023/10/14 01:14:58;;;;;;;7.07;0.88;;;;;;;23.44;51.13;99985.88;4976385;28;20530;-62
2023/10/14 01:17:30;;;;;;;1.45;0.25;;;;;;;23.39;51.63;99998.56;4945151;28;20041;-63
2023/10/14 01:19:59;;;;;;;0.38;0.20;;;;;;;23.32;51.61;100001.34;4944662;28;20088;-62
2023/10/14 01:22:26;;;;;;;2.47;0.38;;;;;;;23.24;51.25;100007.16;4959095;28;20035;-60
2023/10/14 01:24:55;;;;;;;0.38;0.20;;;;;;;23.14;51.14;100020.53;4959591;28;20042;-61
2023/10/14 01:27:21;;;;;;;0.88;0.13;;;;;;;23.06;52.30;100037.25;4959337;28;20122;-61
2023/10/14 01:29:50;;;;;;;1.73;0.22;;;;;;;22.95;51.70;100047.03;4927833;28;20494;-64
2023/10/14 01:35:31;;;;;;;2.33;0.10;;;;;;;22.65;52.30;100072.59;4947109;28;20126;-61
2023/10/14 01:37:58;;;;;;;0.75;0.35;;;;;;;22.51;51.60;100083.63;4961307;28;20039;-61
2023/10/14 01:43:08;;;;;;;0.30;0.30;;;;;;;22.33;52.33;100088.22;4960391;28;20045;-61
2023/10/14 01:45:48;;;;;;;1.23;0.20;;;;;;;22.23;52.50;100096.88;4943998;28;20039;-61
2023/10/14 01:48:14;;;;;;;0.00;0.00;;;;;;;22.14;52.70;100100.13;4943741;28;20502;-61
2023/10/14 01:50:45;;;;;;;1.38;0.10;;;;;;;22.03;52.00;100112.56;4976020;28;20060;-61
2023/10/14 01:53:18;;;;;;;0.40;0.10;;;;;;;21.97;52.26;100118.94;4942852;28;20034;-62
2023/10/14 01:55:43;;;;;;;;;;;;;;;21.93;51.64;100114.97;4959516;28;20037;-61
2023/10/14 01:58:57;;;;;;;0.10;0.10;;;;;;;21.87;52.20;100122.13;4958708;28;19918;-60
2023/10/14 02:01:05;;;;;;;2.42;0.50;;;;;;;21.86;52.72;100133.25;4931160;28;20067;-60
2023/10/14 02:03:33;;;;;;;1.00;0.03;;;;;;;21.83;52.18;100139.94;4958558;28;20031;-64
2023/10/14 02:05:59;;;;;;;0.10;0.10;;;;;;;21.85;52.97;100150.66;4975712;28;20043;-64
2023/10/14 02:08:25;;;;;;;0.00;0.00;;;;;;;21.85;51.93;100164.28;4975832;28;20035;-65
2023/10/14 02:10:51;;;;;;;1.58;0.20;;;;;;;21.85;52.18;100164.28;4958334;28;20027;-65
2023/10/14 02:13:18;;;;;;;0.65;0.20;;;;;;;21.81;53.13;100165.75;4958698;28;20046;-65
2023/10/14 02:15:47;;;;;;;0.77;0.03;;;;;;;21.80;52.65;100172.28;4942420;28;20053;-66
2023/10/14 02:18:20;;;;;;;0.10;0.10;;;;;;;21.81;53.21;100184.84;4958712;28;20049;-66
2023/10/14 02:21:05;;;;;;;1.98;0.20;;;;;;;21.85;53.27;100186.09;4942648;28;20034;-65
2023/10/14 02:23:47;;;;;;;2.85;1.15;;;;;;;21.81;52.41;100196.59;4947166;28;20046;-65
2023/10/14 02:26:22;;;;;;;2.78;0.30;;;;;;;21.79;53.35;100208.78;4959531;28;20049;-66
2023/10/14 02:28:48;;;;;;;2.53;0.32;;;;;;;21.76;52.55;100225.56;4957774;28;20039;-67
2023/10/14 02:31:29;;;;;;;0.63;0.50;;;;;;;21.74;52.59;100233.16;4958185;28;20395;-66
2023/10/14 02:34:08;;;;;;;0.57;0.57;;;;;;;21.74;53.40;100254.94;4960161;28;20034;-67
2023/10/14 02:36:35;;;;;;;6.40;2.70;;;;;;;21.66;52.42;100247.88;4942757;28;20127;-66
2023/10/14 02:39:02;;;;;;;5.93;0.75;;;;;;;21.68;52.44;100266.72;4958121;28;20034;-66
2023/10/14 02:41:30;;;;;;;7.03;0.93;;;;;;;21.62;53.19;100279.31;4941613;28;20035;-65
2023/10/14 02:46:42;;;;;;;2.30;0.68;;;;;;;21.54;52.55;100290.47;4975181;28;20058;-66
2023/10/14 02:49:13;;;;;;;6.32;0.90;;;;;;;21.51;53.32;100295.50;4958040;28;20438;-65
2023/10/14 02:54:12;;;;;;;3.78;0.90;;;;;;;21.44;52.74;100304.50;4975150;28;20030;-64
2023/10/14 02:56:46;;;;;;;3.75;0.88;;;;;;;21.42;53.43;100314.78;4958851;28;20046;-64
2023/10/14 02:59:15;;;;;;;3.03;0.70;;;;;;;21.41;52.44;100325.91;4958694;28;20057;-64
2023/10/14 03:01:51;;;;;;;5.88;1.23;;;;;;;21.39;52.72;100333.44;4942284;28;20043;-64
2023/10/14 03:04:19;;;;;;;1.73;0.98;;;;;;;21.37;52.52;100343.72;4958824;28;20027;-64
2023/10/14 03:06:48;;;;;;;4.53;0.82;;;;;;;21.38;52.59;100354.41;4940173;28;20507;-64
2023/10/14 03:09:32;;;;;;;4.15;1.10;;;;;;;21.42;53.25;100366.56;4957330;28;20089;-66
2023/10/14 03:11:59;;;;;;;4.90;1.02;;;;;;;21.47;52.54;100376.84;4960134;28;20035;-64
2023/10/14 03:14:24;;;;;;;5.50;1.00;;;;;;;21.47;52.28;100385.84;4957327;28;20035;-58
2023/10/14 03:16:52;;;;;;;4.20;1.10;;;;;;;21.53;52.15;100386.06;4974472;28;20089;-58
2023/10/14 03:19:18;;;;;;;6.47;1.10;;;;;;;21.51;53.00;100396.34;4941557;28;20066;-58
2023/10/14 03:21:58;;;;;;;7.18;0.90;;;;;;;21.46;52.53;100403.28;4957698;28;20039;-60
2023/10/14 03:24:32;;;;;;;10.50;1.55;;;;;;;21.44;52.16;100424.44;4942963;28;20107;-58
2023/10/14 03:27:05;;;;;;;9.63;1.48;;;;;;;21.42;51.85;100431.13;4956718;28;20041;-61
2023/10/14 03:29:31;;;;;;;11.88;1.35;;;;;;;21.46;52.05;100444.16;4941966;28;20069;-60
2023/10/14 03:31:57;;;;;;;3.55;1.20;;;;;;;21.51;52.42;100450.84;4941460;28;20054;-60
2023/10/14 03:34:31;;;;;;;16.00;1.35;;;;;;;21.56;51.97;100459.25;4956854;28;20450;-60
2023/10/14 03:37:16;;;;;;;1.77;0.90;;;;;;;21.62;52.23;100466.59;4941887;28;20077;-60
2023/10/14 03:39:46;;;;;;;8.63;1.20;;;;;;;21.61;51.78;100464.94;4959788;28;20110;-60
2023/10/14 03:42:13;;;;;;;5.82;1.40;;;;;;;21.62;51.53;100469.31;4941965;28;20034;-60
2023/10/14 03:44:41;;;;;;;12.48;2.10;;;;;;;21.63;52.02;100479.19;4956912;28;20478;-60
2023/10/14 03:47:19;;;;;;;8.23;1.23;;;;;;;21.64;51.18;100484.41;4957303;28;20423;-60
2023/10/14 03:49:45;;;;;;;5.88;1.33;;;;;;;21.67;51.27;100494.06;4941749;28;20089;-60
2023/10/14 03:52:12;;;;;;;6.32;1.08;;;;;;;21.67;51.19;100499.50;4956691;28;20035;-60
2023/10/14 03:54:41;;;;;;;6.38;1.30;;;;;;;21.66;51.53;100508.75;4957019;28;20088;-60
2023/10/14 03:57:07;;;;;;;4.95;1.35;;;;;;;21.67;51.04;100515.84;4925836;28;20045;-60
2023/10/14 03:59:33;;;;;;;7.53;1.42;;;;;;;21.65;50.80;100509.78;4972837;28;20035;-60
2023/10/14 04:02:02;;;;;;;4.15;1.42;;;;;;;21.63;51.24;100529.09;4957072;28;20042;-60
2023/10/14 04:04:29;;;;;;;8.15;1.05;;;;;;;21.61;50.81;100527.63;4956534;28;20506;-60
2023/10/14 04:09:44;;;;;;;8.82;0.95;;;;;;;21.57;51.02;100539.97;4957525;28;20089;-60
2023/10/14 04:14:57;;;;;;;10.07;1.58;;;;;;;21.52;50.36;100570.59;4973956;28;20045;-60
2023/10/14 04:17:30;;;;;;;8.65;1.50;;;;;;;21.51;50.31;100571.63;4957243;28;20142;-60
2023/10/14 04:20:13;;;;;;;;;;;;;;;21.52;50.70;100588.84;4945711;28;20553;-60
2023/10/14 04:22:39;;;;;;;6.00;1.75;;;;;;;21.51;51.02;100593.44;4962988;28;19946;-58
2023/10/14 04:25:19;;;;;;;7.05;1.05;;;;;;;21.48;51.02;100605.59;4944441;28;20066;-58
2023/10/14 04:30:24;;;;;;;5.72;1.48;;;;;;;21.42;50.24;100611.88;4941328;29;20047;-60
2023/10/14 04:35:23;;;;;;;9.80;1.67;;;;;;;21.34;50.47;100617.50;4942012;29;20491;-59
2023/10/14 04:37:52;;;;;;;13.93;1.85;;;;;;;21.30;50.71;100615.41;4925096;29;20525;-58
2023/10/14 04:45:52;;;;;;;8.05;1.20;;;;;;;21.17;49.29;100648.88;4940897;29;20035;-58
2023/10/14 04:48:28;;;;;;;5.60;1.10;;;;;;;21.12;49.87;100650.50;4931860;29;20039;-58
2023/10/14 04:50:57;;;;;;;13.05;2.05;;;;;;;21.07;49.90;100662.03;4924401;29;20047;-60
2023/10/14 04:53:26;;;;;;;12.02;2.15;;;;;;;21.03;50.30;100660.69;4941000;29;20035;-58
2023/10/14 04:55:55;;;;;;;4.97;1.15;;;;;;;20.97;49.33;100672.38;4940785;29;20039;-58
2023/10/14 04:58:25;;;;;;;6.93;1.35;;;;;;;20.98;49.69;100674.09;4929092;29;20619;-58
2023/10/14 05:00:52;;;;;;;4.85;0.98;;;;;;;20.96;49.48;100678.91;4949823;29;20122;-58
2023/10/14 05:03:20;;;;;;;6.78;1.20;;;;;;;20.92;49.21;100691.22;4930550;29;20189;-58
2023/10/14 05:05:52;;;;;;;14.68;1.80;;;;;;;20.89;50.01;100692.47;4927296;29;20035;-58
2023/10/14 05:08:21;;;;;;;7.90;1.40;;;;;;;20.85;49.46;100698.53;4949158;29;20036;-60
2023/10/14 05:10:51;;;;;;;4.75;1.30;;;;;;;20.82;49.32;100696.19;4913657;29;20042;-57
2023/10/14 05:13:31;;;;;;;13.82;2.20;;;;;;;20.78;49.12;100694.88;4947519;29;20031;-59
2023/10/14 05:16:15;;;;;;;8.45;1.75;;;;;;;20.73;49.56;100703.66;4932125;29;20123;-60
2023/10/14 05:18:43;;;;;;;6.45;1.08;;;;;;;20.69;49.33;100713.25;4917009;29;20114;-60
2023/10/14 05:21:20;;;;;;;7.90;1.20;;;;;;;20.65;49.38;100708.41;4929446;29;20040;-60
2023/10/14 05:23:46;;;;;;;9.57;1.33;;;;;;;20.63;49.18;100716.75;4928642;29;20507;-60
2023/10/14 05:26:14;;;;;;;8.02;1.15;;;;;;;20.57;49.08;100708.56;4913956;29;20030;-58
2023/10/14 05:28:42;;;;;;;10.88;1.98;;;;;;;20.60;48.94;100724.50;4936387;29;20430;-60
2023/10/14 05:31:08;;;;;;;7.88;1.45;;;;;;;20.54;49.20;100726.13;4939843;29;20039;-60
2023/10/14 05:33:34;;;;;;;6.82;1.38;;;;;;;20.54;48.35;100730.72;4956973;29;20030;-59
2023/10/14 05:36:01;;;;;;;3.55;1.02;;;;;;;20.53;48.73;100739.91;4940206;29;20070;-60
2023/10/14 05:38:27;;;;;;;7.80;1.27;;;;;;;20.48;49.21;100740.50;4940469;29;20479;-63
2023/10/14 05:40:55;;;;;;;11.45;1.50;;;;;;;20.46;48.32;100750.75;4938751;29;20050;-61
2023/10/14 05:43:22;;;;;;;6.32;1.70;;;;;;;20.42;49.17;100749.44;4957210;29;20043;-60
2023/10/14 05:45:47;;;;;;;3.40;1.30;;;;;;;20.41;48.96;100757.81;4941992;29;20045;-60
2023/10/14 05:48:13;;;;;;;8.27;1.20;;;;;;;20.38;48.89;100758.22;4941198;29;20110;-60
2023/10/14 05:50:39;;;;;;;6.82;1.10;;;;;;;20.32;48.71;100766.09;4940940;29;20099;-61
2023/10/14 05:53:07;;;;;;;6.53;1.63;;;;;;;20.31;48.53;100763.56;4939872;29;20035;-60
2023/10/14 05:55:33;;;;;;;7.03;1.33;;;;;;;20.26;48.74;100766.88;4939497;29;20043;-60
2023/10/14 05:58:00;;;;;;;7.45;1.05;;;;;;;20.23;48.61;100775.41;4939488;29;20031;-60
2023/10/14 06:00:29;;;;;;;5.60;1.33;;;;;;;20.21;48.19;100774.72;4923862;29;20039;-60
2023/10/14 06:02:57;;;;;;;5.70;1.25;;;;;;;20.19;48.96;100781.41;4923325;29;20043;-60
2023/10/14 06:05:26;;;;;;;7.82;1.98;;;;;;;20.14;48.33;100787.44;4939294;29;20027;-59
2023/10/14 06:08:05;;;;;;;7.45;1.30;;;;;;;20.13;48.69;100798.50;4939233;29;20391;-59
2023/10/14 06:10:31;;;;;;;7.18;0.95;;;;;;;20.11;48.92;100798.69;4956400;29;20100;-59
2023/10/14 06:12:56;;;;;;;6.70;2.17;;;;;;;20.11;48.42;100804.13;4939127;29;20044;-59
2023/10/14 06:15:22;;;;;;;6.05;1.48;;;;;;;20.13;48.42;100809.38;4956256;29;20031;-59
2023/10/14 06:17:49;;;;;;;7.68;1.17;;;;;;;20.14;48.37;100811.06;4939287;29;20035;-60
2023/10/14 06:23:40;;;;;;;5.78;1.10;;;;;;;20.10;47.98;100815.22;4955788;29;20135;-59
2023/10/14 06:26:06;;;;;;;12.18;1.67;;;;;;;20.14;47.84;100822.78;4938861;29;20043;-60
2023/10/14 06:28:32;;;;;;;10.05;1.67;;;;;;;20.18;48.18;100824.06;4938806;29;20376;-60
2023/10/14 06:31:00;;;;;;;7.32;1.67;;;;;;;20.26;48.46;100832.19;4938881;29;20034;-57
2023/10/14 06:33:26;;;;;;;12.18;1.60;;;;;;;20.31;48.28;100835.16;4939348;29;20039;-60
2023/10/14 06:35:52;;;;;;;11.50;1.30;;;;;;;20.37;47.81;100852.59;4907405;29;20047;-60
2023/10/14 06:38:19;;;;;;;4.80;1.42;;;;;;;20.46;47.42;100854.19;4938738;29;20055;-60
2023/10/14 06:40:53;;;;;;;7.60;1.77;;;;;;;20.51;47.61;100857.16;4938106;29;20055;-60
2023/10/14 06:43:33;;;;;;;11.75;1.48;;;;;;;20.58;47.19;100857.22;4955699;29;20027;-60
2023/10/14 06:45:59;;;;;;;7.53;1.50;;;;;;;20.58;47.58;100876.25;4938623;29;20027;-64
2023/10/14 06:48:25;;;;;;;14.02;1.30;;;;;;;20.61;47.21;100873.16;4938666;29;20075;-64
2023/10/14 06:50:54;;;;;;;6.22;0.98;;;;;;;20.71;47.04;100874.56;4938778;29;20111;-64
2023/10/14 06:53:20;;;;;;;7.13;1.38;;;;;;;20.79;46.87;100874.41;4955616;29;20071;-64
2023/10/14 06:55:45;;;;;;;6.88;2.00;;;;;;;20.88;47.29;100880.59;4922507;29;20458;-64
2023/10/14 06:58:13;;;;;;;6.10;1.80;;;;;;;20.98;47.04;100897.44;4938454;29;20508;-64
2023/10/14 07:00:41;;;;;;;8.15;1.42;;;;;;;21.08;46.27;100889.78;4938255;29;20503;-64
2023/10/14 07:03:12;;;;;;;10.77;1.63;;;;;;;21.19;46.29;100896.63;4938228;29;20039;-63
2023/10/14 07:05:46;;;;;;;6.05;1.67;;;;;;;21.28;46.90;100906.31;4938239;29;20488;-64
2023/10/14 07:08:12;;;;;;;5.13;1.08;;;;;;;21.41;46.40;100915.44;4955366;29;20067;-64
2023/10/14 07:10:38;;;;;;;8.88;1.85;;;;;;;21.48;45.73;100916.34;4955280;29;20035;-64
2023/10/14 07:13:04;;;;;;;7.07;1.52;;;;;;;21.54;46.27;100908.41;4955221;29;20039;-64
2023/10/14 07:15:33;;;;;;;9.15;1.52;;;;;;;21.59;45.87;100914.09;4922302;29;20406;-64
2023/10/14 07:17:59;;;;;;;8.57;2.47;;;;;;;21.57;46.07;100924.38;4922444;29;20499;-64
2023/10/14 07:20:29;;;;;;;6.65;1.27;;;;;;;21.61;46.65;100920.22;4928807;29;20043;-64
2023/10/14 07:22:58;;;;;;;9.50;2.10;;;;;;;21.65;46.28;100932.41;4938584;29;20499;-64
2023/10/14 07:25:34;;;;;;;10.10;1.92;;;;;;;21.75;46.16;100932.88;4937803;29;20043;-63
2023/10/14 07:28:00;;;;;;;9.57;1.73;;;;;;;21.86;46.09;100937.81;4937674;29;20138;-64
2023/10/14 07:30:28;;;;;;;7.07;1.40;;;;;;;22.01;45.85;100941.28;4922249;29;20411;-63
2023/10/14 07:32:54;;;;;;;4.70;1.67;;;;;;;22.15;45.28;100945.78;4937903;29;20035;-63
2023/10/14 07:35:20;;;;;;;5.72;1.50;;;;;;;22.34;45.64;100952.38;4938002;29;20059;-63
2023/10/14 07:37:53;;;;;;;4.15;1.38;;;;;;;22.46;45.13;100948.88;4937970;29;20062;-64
2023/10/14 07:40:23;;;;;;;10.20;1.92;;;;;;;22.64;44.75;100961.97;4938772;29;20039;-64
2023/10/14 07:43:07;;;;;;;3.70;1.30;;;;;;;22.77;44.76;100962.06;4938109;29;20035;-64
2023/10/14 07:45:43;;;;;;;10.82;1.80;;;;;;;22.92;44.55;100964.63;4938429;29;20047;-64
2023/10/14 07:48:09;;;;;;;4.07;1.77;;;;;;;23.03;43.76;100977.69;4937738;29;20434;-64
2023/10/14 07:50:46;;;;;;;10.75;2.50;;;;;;;23.15;44.04;100976.00;4937639;29;20398;-64
2023/10/14 07:53:12;;;;;;;9.52;1.55;;;;;;;23.31;43.89;100983.00;4937627;29;20118;-64
2023/10/14 07:55:39;;;;;;;10.07;1.95;;;;;;;23.47;43.77;100991.66;4937629;29;20050;-60
2023/10/14 07:58:08;;;;;;;4.35;1.52;;;;;;;23.62;43.05;100995.03;4954783;29;20031;-60
2023/10/14 08:00:38;;;;;;;10.50;2.72;;;;;;;23.76;43.26;100985.75;4954744;29;20039;-60
2023/10/14 08:03:06;;;;;;;9.98;1.33;;;;;;;23.98;42.88;100999.22;4937707;29;20035;-60
2023/10/14 08:05:35;;;;;;;9.35;1.55;;;;;;;24.18;42.55;101011.00;4921846;29;20031;-60
2023/10/14 08:08:06;;;;;;;4.90;1.52;;;;;;;24.32;42.58;101013.50;4937566;29;20066;-60
2023/10/14 08:10:31;;;;;;;3.92;1.30;;;;;;;24.42;42.23;101015.81;4922178;29;20034;-60
2023/10/14 08:12:57;;;;;;;6.35;1.30;;;;;;;24.55;42.22;101014.91;4937605;29;20039;-60
2023/10/14 08:15:22;;;;;;;7.25;1.23;;;;;;;24.64;41.96;101025.44;4921649;29;20070;-60
2023/10/14 08:17:51;;;;;;;9.82;1.40;;;;;;;24.76;41.86;101015.47;4921792;29;20058;-60
2023/10/14 08:20:19;;;;;;;11.30;1.35;;;;;;;24.89;41.41;101020.94;4954543;29;20432;-61
2023/10/14 08:22:46;;;;;;;9.18;1.20;;;;;;;24.98;41.43;101023.44;4921742;29;20122;-60
2023/10/14 08:25:18;;;;;;;4.72;0.95;;;;;;;25.11;41.03;101031.56;4937390;29;20119;-60
2023/10/14 08:27:44;;;;;;;5.47;1.50;;;;;;;25.24;41.02;101034.22;4937838;29;20099;-60
2023/10/14 08:30:13;;;;;;;9.75;1.50;;;;;;;25.35;40.44;101033.53;4937376;29;20039;-60
2023/10/14 08:32:42;;;;;;;9.15;1.35;;;;;;;25.49;40.24;101032.41;4954489;29;20035;-60
2023/10/14 08:35:15;;;;;;;8.25;1.35;;;;;;;25.70;39.75;101043.03;4937536;29;20031;-60
2023/10/14 08:37:50;;;;;;;7.70;1.58;;;;;;;25.85;39.57;101045.47;4934308;29;20105;-61
2023/10/14 08:40:21;;;;;;;11.30;2.00;;;;;;;25.94;39.56;101047.69;4933816;29;20046;-60
2023/10/14 08:42:50;;;;;;;6.95;1.75;;;;;;;26.05;39.64;101049.72;4937110;29;20043;-60
2023/10/14 08:45:20;;;;;;;7.82;1.60;;;;;;;26.27;39.21;101050.16;4937031;29;20035;-60
2023/10/14 08:47:54;;;;;;;5.20;1.23;;;;;;;26.45;39.11;101054.84;4937133;29;20040;-60
2023/10/14 08:50:23;;;;;;;8.27;1.67;;;;;;;26.60;38.24;101063.56;4906777;29;20043;-60
2023/10/14 08:52:56;;;;;;;8.23;1.13;;;;;;;26.79;38.38;101065.28;4937248;29;20028;-60
2023/10/14 08:55:22;;;;;;;4.72;1.52;;;;;;;26.99;38.12;101057.63;4954104;29;20066;-60
2023/10/14 08:57:49;;;;;;;4.85;1.30;;;;;;;27.22;37.56;101064.31;4936793;29;20031;-60
2023/10/14 09:00:19;;;;;;;12.30;1.75;;;;;;;27.50;37.24;101064.59;4936811;29;20098;-60
2023/10/14 09:02:53;;;;;;;3.13;0.88;;;;;;;27.74;37.31;101061.66;4936851;28;20110;-60
2023/10/14 09:05:18;;;;;;;9.63;1.85;;;;;;;28.07;36.99;101058.38;4939633;29;20058;-60
2023/10/14 09:07:45;;;;;;;7.38;1.25;;;;;;;28.38;36.97;101072.88;4940262;29;20027;-60
2023/10/14 09:10:10;;;;;;;4.93;1.67;;;;;;;28.61;35.99;101070.13;4940432;29;20438;-60
2023/10/14 09:12:36;;;;;;;7.78;1.33;;;;;;;28.99;36.30;101066.81;4940056;29;20098;-59
2023/10/14 09:15:02;;;;;;;12.82;1.90;;;;;;;29.60;35.67;101066.13;4940196;29;20517;-60
2023/10/14 09:17:28;;;;;;;8.48;1.25;;;;;;;30.91;34.30;101073.75;4940255;29;20106;-60
2023/10/14 09:19:54;;;;;;;5.65;1.52;;;;;;;31.29;33.15;101061.81;4940135;29;20050;-62
2023/10/14 09:22:27;;;;;;;8.38;1.50;;;;;;;30.36;34.09;101071.03;4940056;29;20428;-62
2023/10/14 09:24:53;;;;;;;10.07;2.15;;;;;;;30.14;34.36;101073.72;4957142;29;20110;-60
2023/10/14 09:27:19;;;;;;;5.45;1.30;;;;;;;30.21;33.75;101074.38;4960317;28;20047;-60
2023/10/14 09:29:45;;;;;;;6.20;1.20;;;;;;;30.36;33.44;101082.94;4943238;28;20427;-59
2023/10/14 09:32:11;;;;;;;5.35;1.15;;;;;;;30.58;33.12;101081.06;4959147;28;20114;-60
2023/10/14 09:34:36;;;;;;;10.65;1.58;;;;;;;30.48;33.19;101085.63;4947886;29;20043;-61
2023/10/14 09:37:10;;;;;;;3.35;1.27;;;;;;;30.73;32.65;101082.38;4939800;29;20118;-60
2023/10/14 09:39:39;;;;;;;4.93;1.10;;;;;;;31.00;32.55;101088.88;4956881;28;20031;-61
2023/10/14 09:42:10;;;;;;;8.73;1.90;;;;;;;31.21;32.05;101085.28;4958828;28;20046;-62
2023/10/14 09:44:42;;;;;;;5.47;1.40;;;;;;;31.44;31.93;101084.97;4943434;28;20392;-62
2023/10/14 09:47:12;;;;;;;4.60;1.45;;;;;;;31.44;31.48;101089.66;4976098;28;20027;-62
2023/10/14 09:49:37;;;;;;;6.72;1.67;;;;;;;31.40;31.07;101089.38;4943048;28;20109;-62
2023/10/14 09:52:03;;;;;;;3.10;1.00;;;;;;;31.78;30.83;101101.41;4958714;28;20443;-62
2023/10/14 09:54:30;;;;;;;6.55;1.38;;;;;;;32.03;30.20;101093.34;4958842;28;20560;-59
2023/10/14 09:56:56;;;;;;;4.72;2.00;;;;;;;32.29;30.35;101100.78;4958495;28;20097;-62
2023/10/14 09:59:22;;;;;;;13.48;1.90;;;;;;;32.61;29.95;101109.91;4958504;28;20042;-61
2023/10/14 10:01:47;;;;;;;7.50;1.33;;;;;;;32.80;30.15;101100.03;4958593;28;20398;-60
2023/10/14 10:04:17;;;;;;;4.00;1.40;;;;;;;33.00;29.85;101107.63;4975507;28;20035;-62
2023/10/14 10:06:57;;;;;;;3.05;1.10;;;;;;;33.17;30.21;101110.22;4958376;28;20039;-61
2023/10/14 10:09:28;;;;;;;4.80;1.25;;;;;;;33.37;29.05;101111.13;4975542;28;20092;-60
2023/10/14 10:11:57;;;;;;;7.33;1.17;;;;;;;33.60;29.36;101107.06;4958259;28;20035;-61
2023/10/14 10:14:25;;;;;;;6.65;1.83;;;;;;;32.16;30.85;101109.56;4942466;28;20399;-63
2023/10/14 10:16:52;;;;;;;8.60;1.55;;;;;;;32.55;30.26;101118.47;4975658;28;20062;-62
2023/10/14 10:19:17;;;;;;;7.28;1.20;;;;;;;31.83;30.57;101116.13;4958285;28;20517;-62
2023/10/14 10:22:17;;;;;;;8.27;1.27;;;;;;;32.23;29.31;101110.16;4975211;28;20031;-64
2023/10/14 10:24:45;;;;;;;6.78;1.45;;;;;;;32.10;29.70;101119.78;4958167;28;20034;-62
2023/10/14 10:27:10;;;;;;;4.35;1.85;;;;;;;30.93;30.45;101119.50;4941857;28;20039;-63
2023/10/14 10:29:48;;;;;;;6.75;0.95;;;;;;;30.62;30.00;101124.84;4942058;28;20042;-62
2023/10/14 10:32:17;;;;;;;7.97;1.77;;;;;;;30.48;30.07;101129.88;4974786;28;20174;-65
2023/10/14 10:35:07;;;;;;;6.10;1.48;;;;;;;29.77;30.42;101130.53;4957467;28;20121;-62
2023/10/14 10:37:54;;;;;;;7.15;1.23;;;;;;;30.00;30.14;101130.44;4975156;28;20027;-62
2023/10/14 10:40:27;;;;;;;5.25;1.35;;;;;;;30.73;29.23;101134.97;4957527;28;20038;-62
2023/10/14 10:42:56;;;;;;;8.70;1.23;;;;;;;31.27;28.41;101139.59;4956685;28;20043;-62
2023/10/14 10:45:26;;;;;;;3.55;1.08;;;;;;;31.51;29.03;101135.50;4957788;28;20528;-62
2023/10/14 10:47:54;;;;;;;7.20;1.30;;;;;;;31.97;28.68;101139.56;4942055;28;20039;-63
2023/10/14 10:50:27;;;;;;;5.70;1.15;;;;;;;32.40;28.13;101134.97;4941826;28;20030;-64
2023/10/14 10:52:54;;;;;;;3.08;0.98;;;;;;;32.73;28.32;101138.28;4941598;28;20038;-64
2023/10/14 10:55:23;;;;;;;5.80;1.48;;;;;;;33.02;27.74;101140.69;4957459;28;20070;-64
2023/10/14 10:57:51;;;;;;;5.72;1.25;;;;;;;33.42;27.00;101138.09;4974780;28;20042;-64
2023/10/14 11:00:18;;;;;;;9.52;1.27;;;;;;;33.72;26.95;101129.91;4941445;28;20039;-64
2023/10/14 11:02:44;;;;;;;4.28;1.23;;;;;;;32.62;27.72;101136.56;4957389;28;20046;-64
2023/10/14 11:05:09;;;;;;;4.57;1.30;;;;;;;32.00;28.32;101146.50;4941506;28;20035;-64
2023/10/14 11:07:35;;;;;;;3.03;1.13;;;;;;;31.60;28.31;101145.00;4957375;28;20097;-64
2023/10/14 11:10:02;;;;;;;5.70;1.02;;;;;;;30.78;28.59;101146.09;4957293;28;20069;-64
2023/10/14 11:12:27;;;;;;;5.38;1.45;;;;;;;30.09;28.92;101148.28;4957653;28;20023;-61
2023/10/14 11:14:52;;;;;;;5.72;1.30;;;;;;;29.59;29.12;101144.53;4935275;29;20038;-62
2023/10/14 11:17:22;;;;;;;4.65;1.50;;;;;;;30.21;28.24;101142.69;4938049;28;20085;-61
2023/10/14 11:19:47;;;;;;;6.38;0.90;;;;;;;30.16;28.71;101135.13;4957351;28;20039;-62
2023/10/14 11:22:13;;;;;;;3.55;1.13;;;;;;;30.20;28.24;101138.22;4957186;28;20098;-62
2023/10/14 11:24:42;;;;;;;4.70;0.93;;;;;;;29.64;29.05;101144.63;4956969;28;20031;-61
2023/10/14 11:27:07;;;;;;;6.72;1.27;;;;;;;29.32;28.96;101155.31;4940903;28;20038;-60
2023/10/14 11:29:33;;;;;;;7.15;1.33;;;;;;;30.08;28.20;101143.84;4938017;29;20466;-60
2023/10/14 11:32:02;;;;;;;5.63;1.33;;;;;;;30.62;27.99;101145.03;4937898;29;20039;-60
2023/10/14 11:34:35;;;;;;;4.38;1.15;;;;;;;31.07;27.47;101139.34;4922176;29;20570;-60
2023/10/14 11:37:01;;;;;;;3.33;1.08;;;;;;;31.32;27.59;101136.91;4938090;29;20047;-60
2023/10/14 11:39:27;;;;;;;10.82;1.50;;;;;;;31.05;27.85;101141.50;4905815;29;20032;-60
2023/10/14 11:41:53;;;;;;;7.13;1.02;;;;;;;31.58;27.36;101144.44;4902698;29;20522;-60
2023/10/14 11:44:19;;;;;;;3.45;0.90;;;;;;;31.88;26.83;101135.63;4918518;29;20040;-61
2023/10/14 11:46:45;;;;;;;6.00;1.30;;;;;;;32.20;26.69;101141.19;4954759;29;20188;-61
2023/10/14 11:49:11;;;;;;;6.18;1.30;;;;;;;31.98;27.10;101152.34;4954564;29;20046;-59
2023/10/14 11:51:43;;;;;;;8.50;1.85;;;;;;;31.64;27.15;101150.88;4937435;29;20126;-60
2023/10/14 11:54:11;;;;;;;4.35;1.30;;;;;;;31.94;26.77;101139.28;4954718;29;20450;-60
2023/10/14 11:56:38;;;;;;;4.15;1.52;;;;;;;32.10;26.83;101143.88;4937945;29;20039;-60
2023/10/14 11:59:04;;;;;;;4.72;1.00;;;;;;;31.78;26.52;101141.03;4954581;29;20039;-61
2023/10/14 12:01:33;;;;;;;6.35;1.23;;;;;;;31.87;26.43;101136.72;4937567;29;20503;-60
2023/10/14 12:03:59;;;;;;;4.38;0.80;;;;;;;31.12;27.25;101147.72;4954570;29;20095;-60
2023/10/14 12:06:25;;;;;;;3.60;1.05;;;;;;;30.78;27.09;101146.09;4954544;29;20034;-61
2023/10/14 12:08:53;;;;;;;3.53;0.70;;;;;;;30.20;27.07;101144.59;4937877;29;20398;-58
2023/10/14 12:11:19;;;;;;;4.13;1.02;;;;;;;29.74;27.77;101153.09;4921178;29;20118;-58
2023/10/14 12:13:45;;;;;;;7.45;1.10;;;;;;;29.80;26.89;101149.41;4937474;29;20122;-59